Time;durP1;ratioP1;P1;durP2;ratioP2;P2;SDS_P1;SDS_P2;PMS_P1;PMS_P2;Temp;Humidity;BMP_temperature;BMP_pressure;BME280_temperature;BME280_humidity;BME280_pressure;Samples;Min_cycle;Max_cycle;Signal;HPM_P1;HPM_P2
2022/02/17 00:00:06;;;;;;;37.15;15.88;;;;;;;;;;1730243;82;21009;-68
2022/02/17 00:02:35;;;;;;;26.45;12.03;;;;;;;;;;1693047;83;21000;-69
2022/02/17 00:05:01;;;;;;;36.75;16.12;;;;;;;;;;1711918;82;21563;-70
2022/02/17 00:07:29;;;;;;;27.98;13.30;;;;;;;;;;1711458;82;21068;-69
2022/02/17 00:09:55;;;;;;;29.95;12.53;;;;;;;;;;1711908;82;21040;-69
2022/02/17 00:12:21;;;;;;;18.87;7.75;;;;;;;;;;1711873;82;21564;-70
2022/02/17 00:14:48;;;;;;;33.98;15.18;;;;;;;;;;1736128;82;21564;-68
2022/02/17 00:17:14;;;;;;;36.95;15.63;;;;;;;;;;1720601;82;21073;-69
2022/02/17 00:19:39;;;;;;;26.57;11.68;;;;;;;;;;1728879;82;21104;-69
2022/02/17 00:22:06;;;;;;;22.50;10.13;;;;;;;;;;1712054;82;21115;-70
2022/02/17 00:24:32;;;;;;;26.10;11.12;;;;;;;;;;1712104;82;21622;-69
2022/02/17 00:26:58;;;;;;;24.07;10.28;;;;;;;;;;1721499;82;21566;-70
2022/02/17 00:29:25;;;;;;;29.35;14.63;;;;;;;;;;1723563;82;20998;-69
2022/02/17 00:31:51;;;;;;;27.95;11.33;;;;;;;;;;1715472;83;21548;-68
2022/02/17 00:34:18;;;;;;;28.35;12.43;;;;;;;;;;1712176;82;21092;-69
2022/02/17 00:36:44;;;;;;;26.48;11.55;;;;;;;;;;1713640;82;21064;-68
2022/02/17 00:39:10;;;;;;;25.62;12.03;;;;;;;;;;1710452;82;21156;-68
2022/02/17 00:41:36;;;;;;;26.55;11.70;;;;;;;;;;1741450;82;21005;-69
2022/02/17 00:44:03;;;;;;;28.70;13.20;;;;;;;;;;1733297;82;21061;-68
2022/02/17 00:46:30;;;;;;;33.55;14.85;;;;;;;;;;1724002;82;21025;-69
2022/02/17 00:48:57;;;;;;;30.35;13.93;;;;;;;;;;1713942;83;21064;-69
2022/02/17 00:51:23;;;;;;;34.55;13.80;;;;;;;;;;1712294;84;21487;-68
2022/02/17 00:53:50;;;;;;;21.35;10.88;;;;;;;;;;1706030;82;21041;-68
2022/02/17 00:56:16;;;;;;;32.00;13.25;;;;;;;;;;1740987;82;21069;-69
2022/02/17 00:58:42;;;;;;;29.57;13.48;;;;;;;;;;1720133;82;21057;-68
2022/02/17 01:01:10;;;;;;;31.87;13.60;;;;;;;;;;1715851;82;21080;-69
2022/02/17 01:03:38;;;;;;;26.23;11.15;;;;;;;;;;1691362;83;21056;-69
2022/02/17 01:06:04;;;;;;;29.20;12.18;;;;;;;;;;1712193;83;21056;-69
2022/02/17 01:08:31;;;;;;;23.20;11.10;;;;;;;;;;1710662;82;20982;-67
2022/02/17 01:10:58;;;;;;;34.45;17.05;;;;;;;;;;1737992;82;21041;-69
2022/02/17 01:13:25;;;;;;;17.85;8.15;;;;;;;;;;1725678;82;21067;-68
2022/02/17 01:15:51;;;;;;;18.65;8.40;;;;;;;;;;1714120;82;21053;-68
2022/02/17 01:18:16;;;;;;;26.75;12.80;;;;;;;;;;1741780;82;20970;-67
2022/02/17 01:20:43;;;;;;;24.40;11.75;;;;;;;;;;1740190;82;21061;-68
2022/02/17 01:23:10;;;;;;;25.25;10.32;;;;;;;;;;1707153;83;21048;-71
2022/02/17 01:25:36;;;;;;;29.72;14.73;;;;;;;;;;1727197;82;21597;-69
2022/02/17 01:28:02;;;;;;;22.70;10.53;;;;;;;;;;1736111;82;21065;-69
2022/02/17 01:30:30;;;;;;;27.10;11.48;;;;;;;;;;1740066;82;21660;-70
2022/02/17 01:32:57;;;;;;;32.13;13.80;;;;;;;;;;1722757;82;21010;-70
2022/02/17 01:35:24;;;;;;;27.25;14.70;;;;;;;;;;1691992;82;21568;-70
2022/02/17 01:37:54;;;;;;;24.82;11.55;;;;;;;;;;1727666;82;21024;-69
2022/02/17 01:40:20;;;;;;;26.73;10.82;;;;;;;;;;1699160;83;21612;-69
2022/02/17 01:42:47;;;;;;;21.73;9.85;;;;;;;;;;1724874;82;21457;-69
2022/02/17 01:45:13;;;;;;;30.43;13.50;;;;;;;;;;1738832;82;21031;-69
2022/02/17 01:47:41;;;;;;;21.97;9.93;;;;;;;;;;1703515;82;21525;-69
2022/02/17 01:50:07;;;;;;;28.30;11.93;;;;;;;;;;1747597;82;21063;-69
2022/02/17 01:52:34;;;;;;;23.85;10.95;;;;;;;;;;1725524;82;21036;-68
2022/02/17 01:55:01;;;;;;;15.28;7.12;;;;;;;;;;1736245;82;21056;-68
2022/02/17 01:57:27;;;;;;;31.48;12.73;;;;;;;;;;1748115;82;21497;-69
2022/02/17 01:59:55;;;;;;;24.85;10.40;;;;;;;;;;1727369;82;20996;-68
2022/02/17 02:05:14;;;;;;;21.97;9.33;;;;;;;;;;1747927;80;21180;-68
2022/02/17 02:07:43;;;;;;;24.60;12.95;;;;;;;;;;1749715;80;21037;-68
2022/02/17 02:10:11;;;;;;;30.32;12.37;;;;;;;;;;1765490;81;21532;-68
2022/02/17 02:12:38;;;;;;;27.60;12.65;;;;;;;;;;1767041;81;21077;-68
2022/02/17 02:15:07;;;;;;;24.75;10.70;;;;;;;;;;1765443;81;21049;-70
2022/02/17 02:17:34;;;;;;;17.55;8.33;;;;;;;;;;1766169;81;21069;-69
2022/02/17 02:20:03;;;;;;;22.98;10.48;;;;;;;;;;1771062;80;21085;-69
2022/02/17 02:22:31;;;;;;;23.70;11.22;;;;;;;;;;1779204;80;21045;-68
2022/02/17 02:25:01;;;;;;;25.10;11.53;;;;;;;;;;1767029;81;21072;-69
2022/02/17 02:27:25;;;;;;;31.30;13.60;;;;;;;;;;1765613;81;20986;-69
2022/02/17 02:29:51;;;;;;;30.32;12.60;;;;;;;;;;1765956;81;20998;-69
2022/02/17 02:32:19;;;;;;;23.40;11.48;;;;;;;;;;1767265;81;21013;-68
2022/02/17 02:34:45;;;;;;;23.50;10.45;;;;;;;;;;1766723;81;21157;-68
2022/02/17 02:37:13;;;;;;;16.10;7.58;;;;;;;;;;1766973;81;21041;-68
2022/02/17 02:39:39;;;;;;;26.77;13.08;;;;;;;;;;1736303;81;21137;-68
2022/02/17 02:42:05;;;;;;;17.92;9.10;;;;;;;;;;1768477;79;22106;-68
2022/02/17 02:44:32;;;;;;;24.75;11.12;;;;;;;;;;1735024;81;21065;-68
2022/02/17 02:46:59;;;;;;;25.23;11.15;;;;;;;;;;1767106;81;20998;-68
2022/02/17 02:49:25;;;;;;;23.27;10.30;;;;;;;;;;1766255;80;21061;-68
2022/02/17 02:51:52;;;;;;;28.60;12.47;;;;;;;;;;1781912;79;21024;-69
2022/02/17 02:54:20;;;;;;;24.12;12.20;;;;;;;;;;1655967;84;21082;-68
2022/02/17 02:56:46;;;;;;;32.65;13.98;;;;;;;;;;1685510;84;21667;-68
2022/02/17 02:59:12;;;;;;;26.73;13.53;;;;;;;;;;1714079;84;21029;-68
2022/02/17 03:01:39;;;;;;;24.90;12.60;;;;;;;;;;1766721;81;21018;-69
2022/02/17 03:04:05;;;;;;;21.02;9.85;;;;;;;;;;1747197;81;21124;-68
2022/02/17 03:06:31;;;;;;;29.60;12.55;;;;;;;;;;1735954;82;21029;-68
2022/02/17 03:08:58;;;;;;;23.22;12.30;;;;;;;;;;1737467;81;21628;-69
2022/02/17 03:11:27;;;;;;;23.83;10.32;;;;;;;;;;1735691;82;21041;-69
2022/02/17 03:13:55;;;;;;;24.47;12.40;;;;;;;;;;1734020;81;21092;-68
2022/02/17 03:16:23;;;;;;;21.97;10.15;;;;;;;;;;1730966;82;21017;-69
2022/02/17 03:18:50;;;;;;;25.77;12.65;;;;;;;;;;1736284;82;21037;-69
2022/02/17 03:21:16;;;;;;;27.10;12.45;;;;;;;;;;1735837;82;21354;-68
2022/02/17 03:23:42;;;;;;;30.75;12.78;;;;;;;;;;1736531;82;21084;-69
2022/02/17 03:26:10;;;;;;;19.42;9.40;;;;;;;;;;1706396;83;21058;-68
2022/02/17 03:28:36;;;;;;;29.92;13.95;;;;;;;;;;1730669;83;21072;-68
2022/02/17 03:31:03;;;;;;;27.95;12.58;;;;;;;;;;1736478;82;21027;-69
2022/02/17 03:33:30;;;;;;;25.92;12.33;;;;;;;;;;1736949;82;21028;-69
2022/02/17 03:35:58;;;;;;;29.65;13.83;;;;;;;;;;1735681;82;21604;-69
2022/02/17 03:38:24;;;;;;;32.00;13.22;;;;;;;;;;1736633;82;21061;-69
2022/02/17 03:40:52;;;;;;;30.52;13.60;;;;;;;;;;1735308;82;21065;-69
2022/02/17 03:43:20;;;;;;;28.65;12.53;;;;;;;;;;1730445;83;21021;-69
2022/02/17 03:45:46;;;;;;;33.25;15.80;;;;;;;;;;1736044;82;21555;-69
2022/02/17 03:48:13;;;;;;;26.30;11.65;;;;;;;;;;1737762;81;21033;-69
2022/02/17 03:50:42;;;;;;;33.75;15.53;;;;;;;;;;1735482;82;21556;-68
2022/02/17 03:53:10;;;;;;;34.30;16.05;;;;;;;;;;1735205;81;21049;-69
2022/02/17 03:55:38;;;;;;;42.27;17.70;;;;;;;;;;1708705;82;21622;-68
2022/02/17 03:58:04;;;;;;;33.60;14.38;;;;;;;;;;1730464;83;21117;-68
2022/02/17 04:00:30;;;;;;;34.45;15.28;;;;;;;;;;1736212;82;21607;-68
2022/02/17 04:02:57;;;;;;;33.02;13.60;;;;;;;;;;1707519;82;21077;-68
2022/02/17 04:05:25;;;;;;;26.77;14.05;;;;;;;;;;1735576;81;21053;-68
2022/02/17 04:07:59;;;;;;;32.65;13.38;;;;;;;;;;1737977;81;21098;-69
2022/02/17 04:10:27;;;;;;;28.15;12.90;;;;;;;;;;1736840;81;21046;-68
2022/02/17 04:12:56;;;;;;;27.82;12.07;;;;;;;;;;1737633;81;21032;-69
2022/02/17 04:15:24;;;;;;;29.92;12.35;;;;;;;;;;1741089;81;21073;-70
2022/02/17 04:17:51;;;;;;;41.53;18.92;;;;;;;;;;1735744;83;21089;-69
2022/02/17 04:20:19;;;;;;;31.42;13.80;;;;;;;;;;1706024;82;21092;-70
2022/02/17 04:22:47;;;;;;;29.10;14.15;;;;;;;;;;1696832;82;21003;-69
2022/02/17 04:25:15;;;;;;;22.80;10.85;;;;;;;;;;1733617;81;21049;-69
2022/02/17 04:27:43;;;;;;;28.95;13.15;;;;;;;;;;1731850;82;21020;-69
2022/02/17 04:30:10;;;;;;;32.23;14.55;;;;;;;;;;1730447;83;21103;-69
2022/02/17 04:32:36;;;;;;;31.40;14.10;;;;;;;;;;1706127;83;21035;-69
2022/02/17 04:35:03;;;;;;;34.45;15.35;;;;;;;;;;1707815;83;21514;-69
2022/02/17 04:37:29;;;;;;;27.45;13.45;;;;;;;;;;1735313;82;21056;-69
2022/02/17 04:39:56;;;;;;;29.65;13.60;;;;;;;;;;1730246;83;21145;-69
2022/02/17 04:42:24;;;;;;;32.30;15.32;;;;;;;;;;1730716;82;21025;-69
2022/02/17 04:44:52;;;;;;;27.27;12.85;;;;;;;;;;1735422;82;21022;-69
2022/02/17 04:47:18;;;;;;;35.15;15.55;;;;;;;;;;1736713;82;21068;-69
2022/02/17 04:49:45;;;;;;;37.98;18.37;;;;;;;;;;1736271;82;21617;-69
2022/02/17 04:52:11;;;;;;;36.77;18.50;;;;;;;;;;1735581;83;21081;-69
2022/02/17 04:54:38;;;;;;;36.03;17.95;;;;;;;;;;1735790;82;21009;-69
2022/02/17 04:57:04;;;;;;;27.70;13.40;;;;;;;;;;1707406;82;21168;-69
2022/02/17 04:59:32;;;;;;;36.08;15.60;;;;;;;;;;1736768;82;21053;-69
2022/02/17 05:01:58;;;;;;;32.17;14.30;;;;;;;;;;1737080;82;21020;-69
2022/02/17 05:04:38;;;;;;;24.43;11.45;;;;;;;;;;1736357;81;21668;-69
2022/02/17 05:07:07;;;;;;;29.37;12.40;;;;;;;;;;1738533;81;21041;-68
2022/02/17 05:09:34;;;;;;;33.65;15.85;;;;;;;;;;1734892;81;21076;-68
2022/02/17 05:12:02;;;;;;;30.75;15.38;;;;;;;;;;1741300;82;21588;-68
2022/02/17 05:14:29;;;;;;;37.85;17.17;;;;;;;;;;1719833;81;21116;-68
2022/02/17 05:16:55;;;;;;;32.20;14.78;;;;;;;;;;1711808;82;21090;-69
2022/02/17 05:19:23;;;;;;;41.33;16.55;;;;;;;;;;1734098;81;21071;-69
2022/02/17 05:22:09;;;;;;;34.88;16.73;;;;;;;;;;1739265;82;21065;-69
2022/02/17 05:24:48;;;;;;;41.28;18.92;;;;;;;;;;1745992;81;21080;-69
2022/02/17 05:27:35;;;;;;;34.43;14.40;;;;;;;;;;1709090;82;21082;-68
2022/02/17 05:30:18;;;;;;;34.75;15.65;;;;;;;;;;1746348;81;20969;-69
2022/02/17 05:32:50;;;;;;;24.92;11.85;;;;;;;;;;1734197;82;21149;-69
2022/02/17 05:35:21;;;;;;;35.48;16.45;;;;;;;;;;1752686;81;21012;-71
2022/02/17 05:37:49;;;;;;;27.35;13.60;;;;;;;;;;1712706;82;21112;-69
2022/02/17 05:40:17;;;;;;;28.73;11.83;;;;;;;;;;1723230;82;21477;-69
2022/02/17 05:42:43;;;;;;;37.78;18.17;;;;;;;;;;1738162;82;21069;-69
2022/02/17 05:45:10;;;;;;;33.42;15.05;;;;;;;;;;1738211;82;21033;-69
2022/02/17 05:47:41;;;;;;;36.42;15.98;;;;;;;;;;1738062;81;21034;-69
2022/02/17 05:50:06;;;;;;;30.17;14.33;;;;;;;;;;1740041;81;20966;-69
2022/02/17 05:52:32;;;;;;;27.95;12.23;;;;;;;;;;1717384;82;21045;-70
2022/02/17 05:54:58;;;;;;;32.25;14.03;;;;;;;;;;1745918;81;21024;-69
2022/02/17 05:57:26;;;;;;;31.25;14.45;;;;;;;;;;1744925;80;21855;-70
2022/02/17 05:59:52;;;;;;;35.43;14.80;;;;;;;;;;1706416;82;20993;-71
2022/02/17 06:02:19;;;;;;;28.10;14.18;;;;;;;;;;1741303;81;21001;-71
2022/02/17 06:04:46;;;;;;;27.13;13.10;;;;;;;;;;1729475;81;21030;-71
2022/02/17 06:07:15;;;;;;;33.90;14.38;;;;;;;;;;1711200;82;21054;-71
2022/02/17 06:09:41;;;;;;;33.20;14.65;;;;;;;;;;1696498;82;21040;-72
2022/02/17 06:12:07;;;;;;;34.78;15.80;;;;;;;;;;1729189;82;21034;-71
2022/02/17 06:14:33;;;;;;;43.87;19.48;;;;;;;;;;1719775;83;21009;-71
2022/02/17 06:16:59;;;;;;;41.05;19.50;;;;;;;;;;1716133;83;21006;-70
2022/02/17 06:19:25;;;;;;;42.08;21.70;;;;;;;;;;1720334;83;21053;-70
2022/02/17 06:21:51;;;;;;;31.80;14.87;;;;;;;;;;1720138;83;21078;-71
2022/02/17 06:24:17;;;;;;;40.28;19.30;;;;;;;;;;1720951;83;21540;-70
2022/02/17 06:26:43;;;;;;;35.90;18.62;;;;;;;;;;1713432;83;21120;-70
2022/02/17 06:29:09;;;;;;;36.70;17.90;;;;;;;;;;1717007;83;21125;-71
2022/02/17 06:31:35;;;;;;;35.33;16.27;;;;;;;;;;1709800;82;21105;-71
2022/02/17 06:34:00;;;;;;;29.05;12.73;;;;;;;;;;1697642;83;21109;-71
2022/02/17 06:36:26;;;;;;;32.83;18.23;;;;;;;;;;1729891;82;21113;-71
2022/02/17 06:38:54;;;;;;;34.10;15.00;;;;;;;;;;1721454;83;21596;-70
2022/02/17 06:41:21;;;;;;;43.20;19.07;;;;;;;;;;1726078;82;21488;-69
2022/02/17 06:43:48;;;;;;;39.27;19.85;;;;;;;;;;1720441;83;20957;-70
2022/02/17 06:46:14;;;;;;;35.43;15.55;;;;;;;;;;1694943;83;21018;-72
2022/02/17 06:48:40;;;;;;;36.28;18.85;;;;;;;;;;1705940;82;21114;-68
2022/02/17 06:51:06;;;;;;;30.10;15.98;;;;;;;;;;1720639;83;21026;-70
2022/02/17 06:53:32;;;;;;;27.65;13.08;;;;;;;;;;1720573;83;20993;-69
2022/02/17 06:55:58;;;;;;;29.63;13.03;;;;;;;;;;1719728;83;21066;-69
2022/02/17 06:58:24;;;;;;;36.15;16.42;;;;;;;;;;1720419;83;21066;-70
2022/02/17 07:00:50;;;;;;;37.40;20.57;;;;;;;;;;1720021;83;21573;-69
2022/02/17 07:03:16;;;;;;;38.40;14.87;;;;;;;;;;1696709;83;21111;-70
2022/02/17 07:05:43;;;;;;;33.63;15.08;;;;;;;;;;1732264;81;21085;-69
2022/02/17 07:08:09;;;;;;;39.95;18.92;;;;;;;;;;1737067;81;21072;-69
2022/02/17 07:13:23;;;;;;;30.20;15.63;;;;;;;;;;1751175;81;21565;-67
2022/02/17 07:15:49;;;;;;;44.45;20.35;;;;;;;;;;1759865;81;21076;-68
2022/02/17 07:18:15;;;;;;;36.53;17.77;;;;;;;;;;1716212;82;21474;-69
2022/02/17 07:20:42;;;;;;;32.78;13.60;;;;;;;;;;1735936;82;21084;-69
2022/02/17 07:23:08;;;;;;;34.48;15.18;;;;;;;;;;1738037;82;21041;-69
2022/02/17 07:25:34;;;;;;;39.70;17.80;;;;;;;;;;1735923;82;21024;-70
2022/02/17 07:28:00;;;;;;;37.20;17.80;;;;;;;;;;1737452;82;21036;-69
2022/02/17 07:30:26;;;;;;;30.05;13.98;;;;;;;;;;1752740;81;21095;-69
2022/02/17 07:35:12;;;;;;;32.53;18.25;;;;;;;;;;1815054;75;26034;-68
2022/02/17 07:37:39;;;;;;;35.43;16.25;;;;;;;;;;1796666;77;21036;-69
2022/02/17 07:40:07;;;;;;;30.95;15.38;;;;;;;;;;1829108;77;21591;-68
2022/02/17 07:42:35;;;;;;;35.70;17.12;;;;;;;;;;1836159;77;20985;-69
2022/02/17 07:45:02;;;;;;;35.35;17.23;;;;;;;;;;1815885;78;21005;-70
2022/02/17 07:47:29;;;;;;;36.08;14.83;;;;;;;;;;1821798;77;21056;-69
2022/02/17 07:49:56;;;;;;;29.92;15.15;;;;;;;;;;1816354;78;21047;-69
2022/02/17 07:52:25;;;;;;;29.15;13.38;;;;;;;;;;1821004;78;20985;-66
2022/02/17 07:54:51;;;;;;;25.85;13.13;;;;;;;;;;1818286;77;21082;-69
2022/02/17 07:57:17;;;;;;;38.10;19.15;;;;;;;;;;1815441;76;20990;-69
2022/02/17 07:59:43;;;;;;;27.35;12.58;;;;;;;;;;1822097;78;21522;-69
2022/02/17 08:02:09;;;;;;;30.25;14.63;;;;;;;;;;1813873;77;21131;-68
2022/02/17 08:04:36;;;;;;;32.53;16.75;;;;;;;;;;1787884;80;21057;-69
2022/02/17 08:07:03;;;;;;;24.90;12.80;;;;;;;;;;1779840;80;21097;-67
2022/02/17 08:09:29;;;;;;;29.60;14.18;;;;;;;;;;1754598;80;21032;-67
2022/02/17 08:11:55;;;;;;;33.15;19.85;;;;;;;;;;1771424;79;21052;-68
2022/02/17 08:14:21;;;;;;;28.00;16.12;;;;;;;;;;1779660;80;20993;-68
2022/02/17 08:16:48;;;;;;;30.50;15.58;;;;;;;;;;1788978;77;21092;-67
2022/02/17 08:19:17;;;;;;;27.62;13.85;;;;;;;;;;1777128;80;21061;-68
2022/02/17 08:21:43;;;;;;;32.42;15.23;;;;;;;;;;1748608;80;21512;-67
2022/02/17 08:24:09;;;;;;;34.90;19.20;;;;;;;;;;1763638;80;21014;-66
2022/02/17 08:26:37;;;;;;;25.97;13.35;;;;;;;;;;1754630;80;21021;-67
2022/02/17 08:29:04;;;;;;;27.85;15.15;;;;;;;;;;1763555;79;21072;-66
2022/02/17 08:31:30;;;;;;;30.40;14.63;;;;;;;;;;1778678;80;21056;-66
2022/02/17 08:33:57;;;;;;;31.77;14.68;;;;;;;;;;1787059;80;21139;-68
2022/02/17 08:36:24;;;;;;;31.87;14.33;;;;;;;;;;1720661;82;21107;-67
2022/02/17 08:38:50;;;;;;;33.02;18.32;;;;;;;;;;1711980;82;21025;-68
2022/02/17 08:41:16;;;;;;;26.68;13.32;;;;;;;;;;1716629;82;21102;-67
2022/02/17 08:43:42;;;;;;;34.60;19.52;;;;;;;;;;1723899;82;21032;-67
2022/02/17 08:46:09;;;;;;;33.65;15.32;;;;;;;;;;1735104;82;21045;-68
2022/02/17 08:48:35;;;;;;;31.93;15.08;;;;;;;;;;1783454;79;21322;-68
2022/02/17 08:51:01;;;;;;;33.48;17.82;;;;;;;;;;1779013;80;21600;-68
2022/02/17 08:53:28;;;;;;;30.75;15.85;;;;;;;;;;1757574;78;21419;-67
2022/02/17 08:55:54;;;;;;;36.23;16.10;;;;;;;;;;1807865;78;21080;-67
2022/02/17 08:58:20;;;;;;;26.85;13.65;;;;;;;;;;1748123;80;21414;-69
2022/02/17 09:00:47;;;;;;;27.07;13.08;;;;;;;;;;1779995;79;21532;-68
2022/02/17 09:03:13;;;;;;;29.42;15.75;;;;;;;;;;1780949;79;21116;-67
2022/02/17 09:05:39;;;;;;;30.25;14.23;;;;;;;;;;1774647;80;21001;-67
2022/02/17 09:08:06;;;;;;;24.77;12.00;;;;;;;;;;1767650;80;21006;-66
2022/02/17 09:10:32;;;;;;;28.17;14.80;;;;;;;;;;1786636;80;20993;-65
2022/02/17 09:12:58;;;;;;;28.73;16.65;;;;;;;;;;1784944;79;21074;-68
2022/02/17 09:15:24;;;;;;;25.05;12.40;;;;;;;;;;1789558;78;21559;-66
2022/02/17 09:17:50;;;;;;;31.75;15.53;;;;;;;;;;1773602;80;20996;-66
2022/02/17 09:20:16;;;;;;;26.55;13.40;;;;;;;;;;1776014;80;21138;-66
2022/02/17 09:22:43;;;;;;;28.45;13.40;;;;;;;;;;1759315;79;21035;-66
2022/02/17 09:25:09;;;;;;;30.55;13.48;;;;;;;;;;1775887;80;21044;-68
2022/02/17 09:27:35;;;;;;;31.62;17.67;;;;;;;;;;1781407;80;21045;-68
2022/02/17 09:30:05;;;;;;;24.50;12.47;;;;;;;;;;1769421;80;20994;-68
2022/02/17 09:32:33;;;;;;;24.80;12.75;;;;;;;;;;1756214;80;21670;-68
2022/02/17 09:34:59;;;;;;;27.00;14.20;;;;;;;;;;1772490;80;21085;-67
2022/02/17 09:37:25;;;;;;;26.65;15.23;;;;;;;;;;1772281;79;21185;-67
2022/02/17 09:39:51;;;;;;;25.57;13.15;;;;;;;;;;1776345;80;21141;-67
2022/02/17 09:42:17;;;;;;;29.45;15.78;;;;;;;;;;1780834;78;21044;-67
2022/02/17 09:44:44;;;;;;;25.20;14.13;;;;;;;;;;1769536;80;21052;-67
2022/02/17 09:47:11;;;;;;;22.85;12.47;;;;;;;;;;1741531;80;21048;-68
2022/02/17 09:49:40;;;;;;;27.32;13.13;;;;;;;;;;1733695;82;21584;-68
2022/02/17 09:52:06;;;;;;;26.80;13.22;;;;;;;;;;1714049;81;21059;-67
2022/02/17 09:54:33;;;;;;;25.15;14.87;;;;;;;;;;1723780;82;21666;-67
2022/02/17 09:57:00;;;;;;;30.17;16.60;;;;;;;;;;1716826;82;21014;-70
2022/02/17 09:59:26;;;;;;;25.50;13.20;;;;;;;;;;1735998;82;21110;-68
2022/02/17 10:01:55;;;;;;;26.15;15.63;;;;;;;;;;1726848;82;21643;-70
2022/02/17 10:04:23;;;;;;;23.10;12.13;;;;;;;;;;1731178;82;21060;-70
2022/02/17 10:06:50;;;;;;;26.55;14.18;;;;;;;;;;1715866;82;21041;-70
2022/02/17 10:09:18;;;;;;;27.95;14.28;;;;;;;;;;1726647;82;21557;-72
2022/02/17 10:11:45;;;;;;;23.35;11.40;;;;;;;;;;1734450;82;20992;-70
2022/02/17 10:14:13;;;;;;;19.95;10.55;;;;;;;;;;1737466;82;21014;-70
2022/02/17 10:16:52;;;;;;;26.50;15.72;;;;;;;;;;1769221;80;21047;-69
2022/02/17 10:19:20;;;;;;;21.02;11.05;;;;;;;;;;1775024;79;21082;-69
2022/02/17 10:21:46;;;;;;;23.95;15.10;;;;;;;;;;1773250;79;21053;-73
2022/02/17 10:24:31;;;;;;;23.40;12.15;;;;;;;;;;1780019;77;21024;-70
2022/02/17 10:27:04;;;;;;;20.43;12.05;;;;;;;;;;1773860;80;21075;-70
2022/02/17 10:29:31;;;;;;;21.60;13.70;;;;;;;;;;1757059;80;21579;-70
2022/02/17 10:32:04;;;;;;;21.02;10.55;;;;;;;;;;1757982;80;21049;-69
2022/02/17 10:34:30;;;;;;;20.15;10.43;;;;;;;;;;1792707;80;21017;-70
2022/02/17 10:36:56;;;;;;;19.32;10.32;;;;;;;;;;1746431;80;21600;-71
2022/02/17 10:39:22;;;;;;;19.45;10.38;;;;;;;;;;1759913;80;21155;-69
2022/02/17 10:41:56;;;;;;;19.07;12.37;;;;;;;;;;1769368;79;21095;-69
2022/02/17 10:44:23;;;;;;;16.65;9.85;;;;;;;;;;1783548;80;21102;-69
2022/02/17 10:46:49;;;;;;;21.50;10.53;;;;;;;;;;1794152;80;21017;-69
2022/02/17 10:49:17;;;;;;;28.65;10.40;;;;;;;;;;1777937;80;21055;-68
2022/02/17 10:51:43;;;;;;;18.52;11.65;;;;;;;;;;1777114;78;21559;-68
2022/02/17 10:54:09;;;;;;;16.95;10.50;;;;;;;;;;1743557;80;21040;-69
2022/02/17 10:56:36;;;;;;;18.23;11.03;;;;;;;;;;1701128;84;21066;-69
2022/02/17 10:59:03;;;;;;;15.58;7.70;;;;;;;;;;1710414;82;21379;-68
2022/02/17 11:01:30;;;;;;;16.85;9.55;;;;;;;;;;1731001;82;21142;-67
2022/02/17 11:03:57;;;;;;;16.45;10.90;;;;;;;;;;1721464;81;21537;-68
2022/02/17 11:06:23;;;;;;;14.33;8.55;;;;;;;;;;1704257;83;21056;-68
2022/02/17 11:08:50;;;;;;;14.83;9.03;;;;;;;;;;1700634;83;21288;-68
2022/02/17 11:11:18;;;;;;;16.62;10.55;;;;;;;;;;1700720;83;21599;-68
2022/02/17 11:13:45;;;;;;;13.68;7.60;;;;;;;;;;1710924;82;21067;-68
2022/02/17 11:16:11;;;;;;;14.68;8.45;;;;;;;;;;1740536;82;21560;-68
2022/02/17 11:18:40;;;;;;;12.68;7.83;;;;;;;;;;1733893;82;21101;-68
2022/02/17 11:21:05;;;;;;;15.60;8.18;;;;;;;;;;1694989;82;21546;-68
2022/02/17 11:23:35;;;;;;;13.68;7.05;;;;;;;;;;1734928;82;20974;-67
2022/02/17 11:26:02;;;;;;;17.57;10.95;;;;;;;;;;1698507;82;21875;-67
2022/02/17 11:28:36;;;;;;;13.90;8.60;;;;;;;;;;1735177;82;21532;-67
2022/02/17 11:31:04;;;;;;;14.03;8.40;;;;;;;;;;1784628;80;21065;-69
2022/02/17 11:33:31;;;;;;;14.40;7.72;;;;;;;;;;1755423;78;21032;-69
2022/02/17 11:36:19;;;;;;;13.03;7.25;;;;;;;;;;1771707;80;21051;-68
2022/02/17 11:38:51;;;;;;;15.25;8.70;;;;;;;;;;1784973;79;21099;-69
2022/02/17 11:41:20;;;;;;;12.55;7.70;;;;;;;;;;1786702;78;21614;-68
2022/02/17 11:43:48;;;;;;;14.23;7.40;;;;;;;;;;1784548;80;21583;-69
2022/02/17 11:46:14;;;;;;;14.38;10.15;;;;;;;;;;1754103;80;21009;-69
2022/02/17 11:48:41;;;;;;;12.53;7.85;;;;;;;;;;1758488;80;21028;-67
2022/02/17 11:51:11;;;;;;;12.47;7.62;;;;;;;;;;1772406;80;21091;-68
2022/02/17 11:53:38;;;;;;;12.13;7.30;;;;;;;;;;1776171;78;20989;-68
2022/02/17 11:56:15;;;;;;;12.68;7.05;;;;;;;;;;1750982;80;21106;-68
2022/02/17 11:58:47;;;;;;;14.05;8.68;;;;;;;;;;1788655;79;20992;-68
2022/02/17 12:01:24;;;;;;;12.55;7.33;;;;;;;;;;1785234;79;21042;-68
2022/02/17 12:03:58;;;;;;;14.63;9.00;;;;;;;;;;1755930;80;21541;-68
2022/02/17 12:06:33;;;;;;;15.20;7.90;;;;;;;;;;1762652;80;21469;-68
2022/02/17 12:08:59;;;;;;;13.55;8.33;;;;;;;;;;1768194;80;21016;-68
2022/02/17 12:11:31;;;;;;;12.85;7.10;;;;;;;;;;1769286;80;21528;-69
2022/02/17 12:14:00;;;;;;;14.73;7.97;;;;;;;;;;1772227;79;21085;-68
2022/02/17 12:16:32;;;;;;;15.55;9.23;;;;;;;;;;1777378;78;21049;-69
2022/02/17 12:19:09;;;;;;;13.22;7.37;;;;;;;;;;1767820;79;21095;-68
2022/02/17 12:21:37;;;;;;;11.60;6.25;;;;;;;;;;1792852;80;21056;-67
2022/02/17 12:24:03;;;;;;;10.50;5.37;;;;;;;;;;1740658;80;21079;-67
2022/02/17 12:26:42;;;;;;;13.00;7.85;;;;;;;;;;1767956;80;21056;-67
2022/02/17 12:29:29;;;;;;;12.98;7.03;;;;;;;;;;1763843;80;21100;-70
2022/02/17 12:31:56;;;;;;;11.30;7.25;;;;;;;;;;1787408;80;21005;-68
2022/02/17 12:34:22;;;;;;;14.03;7.50;;;;;;;;;;1770732;80;21562;-68
2022/02/17 12:36:48;;;;;;;10.55;5.92;;;;;;;;;;1784536;79;20956;-68
2022/02/17 12:39:14;;;;;;;10.30;5.67;;;;;;;;;;1781526;79;21009;-69
2022/02/17 12:41:57;;;;;;;11.97;7.33;;;;;;;;;;1782510;80;21130;-69
2022/02/17 12:44:25;;;;;;;12.67;7.63;;;;;;;;;;1787459;80;21475;-68
2022/02/17 12:46:53;;;;;;;11.53;6.25;;;;;;;;;;1776416;80;21104;-68
2022/02/17 12:49:19;;;;;;;11.97;6.42;;;;;;;;;;1769125;80;21004;-68
2022/02/17 12:51:45;;;;;;;13.50;7.40;;;;;;;;;;1774837;80;21029;-70
2022/02/17 12:54:12;;;;;;;12.35;6.30;;;;;;;;;;1744757;80;21572;-68
2022/02/17 12:56:44;;;;;;;14.73;7.33;;;;;;;;;;1758930;79;21566;-70
2022/02/17 12:59:12;;;;;;;12.37;6.50;;;;;;;;;;1719160;81;21086;-70
2022/02/17 13:01:39;;;;;;;11.30;5.80;;;;;;;;;;1751959;79;21079;-70
2022/02/17 13:04:06;;;;;;;10.58;6.03;;;;;;;;;;1774983;80;21152;-69
2022/02/17 13:06:32;;;;;;;9.05;5.33;;;;;;;;;;1786925;80;21016;-69
2022/02/17 13:08:59;;;;;;;10.80;6.62;;;;;;;;;;1776989;80;21659;-69
2022/02/17 13:11:27;;;;;;;11.12;6.22;;;;;;;;;;1774436;80;21007;-69
2022/02/17 13:14:07;;;;;;;10.03;5.03;;;;;;;;;;1741982;80;21356;-69
2022/02/17 13:16:35;;;;;;;12.45;6.90;;;;;;;;;;1770214;80;21577;-68
2022/02/17 13:19:01;;;;;;;11.28;6.65;;;;;;;;;;1793045;80;21018;-69
2022/02/17 13:21:28;;;;;;;12.70;6.08;;;;;;;;;;1765158;79;21127;-67
2022/02/17 13:24:07;;;;;;;10.80;6.03;;;;;;;;;;1768126;80;21020;-67
2022/02/17 13:26:34;;;;;;;8.10;4.97;;;;;;;;;;1757130;80;21046;-67
2022/02/17 13:29:01;;;;;;;11.18;5.53;;;;;;;;;;1794692;80;21080;-67
2022/02/17 13:31:29;;;;;;;9.33;4.75;;;;;;;;;;1808033;77;21489;-67
2022/02/17 13:34:11;;;;;;;13.75;5.67;;;;;;;;;;1784556;80;21076;-67
2022/02/17 13:36:41;;;;;;;8.58;5.42;;;;;;;;;;1764679;80;21032;-69
2022/02/17 13:39:19;;;;;;;7.85;4.70;;;;;;;;;;1768555;77;21387;-68
2022/02/17 13:41:59;;;;;;;10.18;4.83;;;;;;;;;;1771710;79;21064;-68
2022/02/17 13:44:29;;;;;;;9.03;6.35;;;;;;;;;;1775531;80;21568;-68
2022/02/17 13:46:55;;;;;;;7.75;4.97;;;;;;;;;;1769444;80;21037;-67
2022/02/17 13:49:21;;;;;;;9.05;5.17;;;;;;;;;;1768910;80;21479;-67
2022/02/17 13:51:48;;;;;;;7.42;4.50;;;;;;;;;;1769877;79;21127;-67
2022/02/17 13:54:15;;;;;;;8.75;4.90;;;;;;;;;;1756183;80;21068;-68
2022/02/17 13:56:41;;;;;;;10.03;6.47;;;;;;;;;;1737980;80;21088;-69
2022/02/17 13:59:08;;;;;;;9.05;5.62;;;;;;;;;;1760594;80;21035;-67
2022/02/17 14:01:38;;;;;;;7.35;4.20;;;;;;;;;;1750767;78;21076;-68
2022/02/17 14:04:04;;;;;;;9.75;5.53;;;;;;;;;;1790355;78;21990;-67
2022/02/17 14:06:30;;;;;;;12.80;6.12;;;;;;;;;;1740179;79;21147;-67
2022/02/17 14:08:56;;;;;;;11.35;6.08;;;;;;;;;;1788323;80;21020;-69
2022/02/17 14:11:23;;;;;;;9.88;5.17;;;;;;;;;;1775035;79;21063;-68
2022/02/17 14:13:48;;;;;;;10.08;6.15;;;;;;;;;;1766352;79;21103;-68
2022/02/17 14:16:15;;;;;;;10.82;5.22;;;;;;;;;;1787029;79;21068;-67
2022/02/17 14:18:41;;;;;;;10.30;5.83;;;;;;;;;;1774225;79;21066;-67
2022/02/17 14:21:08;;;;;;;9.28;5.75;;;;;;;;;;1776983;79;21135;-67
2022/02/17 14:23:34;;;;;;;11.90;6.90;;;;;;;;;;1777571;79;21040;-67
2022/02/17 14:26:00;;;;;;;14.03;6.67;;;;;;;;;;1746908;80;21000;-69
2022/02/17 14:28:27;;;;;;;16.60;7.78;;;;;;;;;;1784209;79;21060;-68
2022/02/17 14:30:54;;;;;;;12.50;6.65;;;;;;;;;;1760074;80;21072;-68